Time;durP1;ratioP1;P1;durP2;ratioP2;P2;SDS_P1;SDS_P2;PMS_P1;PMS_P2;Temp;Humidity;BMP_temperature;BMP_pressure;BME280_temperature;BME280_humidity;BME280_pressure;Samples;Min_cycle;Max_cycle;Signal;HPM_P1;HPM_P2
2022/12/10 00:00:24;;;;;;;76.82;40.42;;;;;;;-0.21;100.00;100828.59;10375559;28;20049;-68
2022/12/10 00:05:25;;;;;;;87.28;45.53;;;;;;;-0.28;100.00;100833.59;10374219;28;20030;-69
2022/12/10 00:10:25;;;;;;;88.55;44.20;;;;;;;-0.42;100.00;100837.41;10373757;28;20041;-69
2022/12/10 00:15:25;;;;;;;73.43;43.33;;;;;;;-0.45;100.00;100835.00;10374363;28;20068;-69
2022/12/10 00:20:26;;;;;;;70.38;40.28;;;;;;;-0.53;100.00;100834.81;10374788;28;20435;-68
2022/12/10 00:25:26;;;;;;;58.85;32.95;;;;;;;-0.61;100.00;100830.09;10373989;28;20125;-69
2022/12/10 00:30:26;;;;;;;87.03;41.53;;;;;;;-0.64;100.00;100838.31;10381424;28;20045;-70
2022/12/10 00:35:27;;;;;;;70.97;36.83;;;;;;;-0.71;100.00;100845.97;10385528;28;20084;-69
2022/12/10 00:40:27;;;;;;;75.18;40.33;;;;;;;-0.75;100.00;100841.88;10383608;28;20110;-69
2022/12/10 00:45:28;;;;;;;89.25;41.58;;;;;;;-0.81;100.00;100841.53;10381601;28;20034;-70
2022/12/10 00:50:28;;;;;;;73.90;43.28;;;;;;;-0.80;100.00;100845.88;10382036;28;20037;-70
2022/12/10 00:55:29;;;;;;;68.50;35.70;;;;;;;-0.65;100.00;100843.78;10381407;28;20040;-69
2022/12/10 01:00:29;;;;;;;95.75;45.00;;;;;;;-0.53;100.00;100842.78;10381772;28;20030;-69
2022/12/10 01:05:29;;;;;;;98.60;50.13;;;;;;;-0.41;100.00;100838.28;10396105;28;20041;-70
2022/12/10 01:10:30;;;;;;;93.55;48.15;;;;;;;-0.38;100.00;100843.31;10382133;28;20061;-69
2022/12/10 01:15:30;;;;;;;95.47;48.38;;;;;;;-0.30;100.00;100867.47;10382375;28;20025;-69
2022/12/10 01:20:34;;;;;;;104.93;50.38;;;;;;;-0.24;100.00;100862.47;10382408;28;20123;-70
2022/12/10 01:25:35;;;;;;;93.80;49.38;;;;;;;-0.22;100.00;100864.16;10381781;28;20056;-70
2022/12/10 01:30:35;;;;;;;99.47;51.13;;;;;;;-0.20;100.00;100864.88;10381897;28;20038;-69
2022/12/10 01:35:37;;;;;;;97.03;48.95;;;;;;;-0.13;100.00;100864.22;10383207;28;20030;-69
2022/12/10 01:40:38;;;;;;;76.75;39.10;;;;;;;-0.13;100.00;100864.22;10381364;28;20045;-69
2022/12/10 01:45:38;;;;;;;91.72;52.22;;;;;;;-0.18;100.00;100869.09;10377710;28;20374;-69
2022/12/10 01:50:38;;;;;;;99.13;48.03;;;;;;;-0.09;100.00;100881.63;10378860;28;20042;-69
2022/12/10 01:55:47;;;;;;;73.80;40.70;;;;;;;-0.05;100.00;100882.22;10379798;28;20041;-69
2022/12/10 02:00:57;;;;;;;91.18;47.58;;;;;;;-0.08;100.00;100877.16;10377915;28;20458;-70
2022/12/10 02:06:11;;;;;;;106.63;53.17;;;;;;;-0.05;100.00;100880.41;10363210;28;20041;-69
2022/12/10 02:11:18;;;;;;;94.75;45.53;;;;;;;-0.02;100.00;100885.47;10379789;28;20493;-71
2022/12/10 02:16:40;;;;;;;105.20;47.40;;;;;;;-0.04;100.00;100873.25;10377129;28;20041;-69
2022/12/10 02:21:41;;;;;;;98.00;48.55;;;;;;;0.02;100.00;100871.91;10377737;28;20096;-70
2022/12/10 02:27:01;;;;;;;101.70;44.13;;;;;;;0.02;100.00;100875.41;10360239;28;20132;-69
2022/12/10 02:32:08;;;;;;;110.05;51.35;;;;;;;0.06;100.00;100879.47;10393099;28;20109;-69
2022/12/10 02:37:12;;;;;;;62.65;33.58;;;;;;;-0.04;100.00;100878.56;10361369;28;20034;-70
2022/12/10 02:42:12;;;;;;;77.63;40.13;;;;;;;-0.07;100.00;100873.50;10359927;28;20042;-69
2022/12/10 02:47:13;;;;;;;91.38;43.45;;;;;;;-0.03;100.00;100867.81;10359423;28;20466;-70
2022/12/10 02:52:14;;;;;;;69.47;39.88;;;;;;;-0.04;100.00;100874.09;10374259;28;20038;-69
2022/12/10 02:57:36;;;;;;;58.13;31.15;;;;;;;-0.04;100.00;100870.59;10377812;28;20088;-69
2022/12/10 03:03:04;;;;;;;94.03;41.92;;;;;;;-0.07;100.00;100854.88;10375960;28;20057;-69
2022/12/10 03:08:13;;;;;;;76.63;37.80;;;;;;;-0.11;100.00;100858.78;10375121;28;20526;-68
2022/12/10 03:13:14;;;;;;;126.97;44.10;;;;;;;-0.02;100.00;100855.34;10392999;28;20473;-69
2022/12/10 03:18:15;;;;;;;67.35;36.72;;;;;;;-0.01;100.00;100855.19;10375786;28;20450;-69
2022/12/10 03:23:16;;;;;;;91.63;43.47;;;;;;;0.09;100.00;100862.41;10374558;28;20029;-69
2022/12/10 03:28:18;;;;;;;106.55;42.75;;;;;;;0.11;100.00;100855.97;10358181;28;20058;-69
2022/12/10 03:33:18;;;;;;;84.10;36.70;;;;;;;0.08;100.00;100861.56;10373606;28;20038;-70
2022/12/10 03:38:19;;;;;;;88.28;43.50;;;;;;;0.11;100.00;100860.47;10375262;28;20034;-68
2022/12/10 03:43:21;;;;;;;86.47;39.83;;;;;;;0.10;100.00;100859.63;10358152;28;20025;-69
2022/12/10 03:48:21;;;;;;;76.30;36.95;;;;;;;0.09;100.00;100871.22;10373820;28;20124;-69
2022/12/10 03:53:21;;;;;;;56.53;30.27;;;;;;;0.13;100.00;100872.69;10375387;28;20049;-68
2022/12/10 03:58:22;;;;;;;86.80;33.65;;;;;;;0.05;100.00;100869.81;10373713;28;20041;-68
2022/12/10 04:03:22;;;;;;;69.05;37.70;;;;;;;0.10;100.00;100864.13;10374550;28;20038;-68
2022/12/10 04:08:23;;;;;;;119.68;46.30;;;;;;;0.13;100.00;100872.69;10374412;28;20030;-68
2022/12/10 04:18:42;;;;;;;76.18;39.35;;;;;;;0.20;100.00;100870.34;10373790;28;20037;-69
2022/12/10 04:29:08;;;;;;;64.70;37.47;;;;;;;0.25;100.00;100870.78;10373787;28;20037;-69
2022/12/10 04:34:09;;;;;;;73.75;37.00;;;;;;;0.28;100.00;100872.34;10357795;28;20113;-68
2022/12/10 04:39:11;;;;;;;65.10;35.28;;;;;;;0.31;100.00;100872.91;10373232;28;20033;-68
2022/12/10 04:44:12;;;;;;;73.32;37.30;;;;;;;0.27;100.00;100883.97;10374520;28;20075;-68
2022/12/10 04:49:12;;;;;;;86.30;39.17;;;;;;;0.19;100.00;100882.81;10374195;28;20488;-67
2022/12/10 04:54:13;;;;;;;60.50;32.15;;;;;;;0.15;100.00;100875.19;10356956;28;20042;-68
2022/12/10 04:59:14;;;;;;;114.43;39.38;;;;;;;0.11;100.00;100877.28;10390363;28;20033;-69
2022/12/10 05:04:16;;;;;;;65.90;34.65;;;;;;;0.13;100.00;100872.69;10387174;28;20053;-69
2022/12/10 05:09:16;;;;;;;79.22;35.10;;;;;;;0.16;100.00;100875.09;10396476;28;20037;-69
2022/12/10 05:14:17;;;;;;;64.75;35.63;;;;;;;0.22;100.00;100874.56;10413427;28;20038;-69
2022/12/10 05:19:19;;;;;;;81.95;35.50;;;;;;;0.27;100.00;100876.81;10396638;28;20489;-69
2022/12/10 05:24:19;;;;;;;56.80;33.55;;;;;;;0.30;100.00;100870.41;10395320;28;20049;-68
2022/12/10 05:29:20;;;;;;;89.20;35.10;;;;;;;0.36;100.00;100876.03;10404785;28;20441;-68
2022/12/10 05:34:20;;;;;;;91.03;36.97;;;;;;;0.31;100.00;100862.25;10381724;28;20037;-68
2022/12/10 05:39:20;;;;;;;60.13;31.45;;;;;;;0.22;100.00;100861.25;10385992;28;20436;-67
2022/12/10 05:44:21;;;;;;;63.83;37.53;;;;;;;0.17;100.00;100871.44;10396104;28;20038;-67
2022/12/10 05:49:21;;;;;;;75.80;36.42;;;;;;;0.16;100.00;100877.75;10378853;28;20450;-68
2022/12/10 05:54:22;;;;;;;58.85;34.85;;;;;;;0.09;100.00;100868.56;10380235;28;20030;-67
2022/12/10 05:59:22;;;;;;;62.33;25.33;;;;;;;0.04;100.00;100873.47;10379032;28;20038;-68
2022/12/10 06:04:22;;;;;;;54.97;30.38;;;;;;;-0.06;100.00;100883.22;10378636;28;20026;-68
2022/12/10 06:09:23;;;;;;;49.92;30.23;;;;;;;-0.02;100.00;100882.81;10376747;28;20433;-68
2022/12/10 06:14:23;;;;;;;53.10;29.90;;;;;;;0.04;100.00;100884.13;10378290;28;20034;-67
2022/12/10 06:19:24;;;;;;;56.33;31.75;;;;;;;0.15;100.00;100886.69;10377520;28;20042;-68
2022/12/10 06:24:24;;;;;;;48.55;26.23;;;;;;;0.09;100.00;100884.53;10377902;28;20084;-66
2022/12/10 06:29:26;;;;;;;87.90;34.95;;;;;;;0.15;100.00;100881.38;10375927;28;20409;-67
2022/12/10 06:34:26;;;;;;;47.53;22.15;;;;;;;0.10;100.00;100901.41;10378081;28;20073;-66
2022/12/10 06:39:27;;;;;;;49.38;30.63;;;;;;;0.15;100.00;100904.50;10377387;28;20042;-67
2022/12/10 06:44:27;;;;;;;74.07;32.25;;;;;;;0.15;100.00;100905.31;10377492;28;20421;-67
2022/12/10 06:49:27;;;;;;;43.10;22.05;;;;;;;0.12;100.00;100910.91;10376373;28;20041;-68
2022/12/10 06:54:28;;;;;;;63.47;32.33;;;;;;;0.03;100.00;100903.69;10393146;28;20029;-67
2022/12/10 06:59:29;;;;;;;58.13;24.40;;;;;;;0.12;100.00;100910.91;10361267;28;20418;-67
2022/12/10 07:04:29;;;;;;;48.03;22.80;;;;;;;0.07;100.00;100918.47;10377037;28;20034;-67
2022/12/10 07:09:29;;;;;;;43.33;23.25;;;;;;;0.00;100.00;100922.63;10376798;28;20423;-68
2022/12/10 07:14:30;;;;;;;70.72;33.17;;;;;;;0.00;100.00;100922.63;10376658;28;20038;-68
2022/12/10 07:19:30;;;;;;;45.08;27.27;;;;;;;0.03;100.00;100927.66;10376446;28;20042;-68
2022/12/10 07:24:30;;;;;;;55.00;28.63;;;;;;;-0.01;100.00;100920.91;10376826;28;20140;-69
2022/12/10 07:29:31;;;;;;;90.18;27.60;;;;;;;-0.11;100.00;100923.50;10376108;28;20057;-68
2022/12/10 07:34:31;;;;;;;57.88;30.75;;;;;;;0.00;100.00;100930.63;10375377;28;20038;-68
2022/12/10 07:39:32;;;;;;;73.53;30.48;;;;;;;-0.08;100.00;100927.72;10373555;28;20041;-68
2022/12/10 07:44:32;;;;;;;54.78;25.23;;;;;;;-0.02;100.00;100929.88;10375036;28;20026;-68
2022/12/10 07:49:33;;;;;;;59.55;35.78;;;;;;;0.03;100.00;100942.78;10374797;28;20045;-68
2022/12/10 07:54:33;;;;;;;58.00;32.47;;;;;;;0.05;100.00;100944.38;10374812;28;20034;-69
2022/12/10 07:59:33;;;;;;;63.00;31.77;;;;;;;0.07;100.00;100949.56;10374567;28;20034;-69
2022/12/10 08:04:34;;;;;;;59.55;33.40;;;;;;;0.04;100.00;100948.00;10372652;28;20061;-69
2022/12/10 08:09:34;;;;;;;59.55;31.58;;;;;;;0.11;100.00;100951.00;10373795;28;20049;-68
2022/12/10 08:14:35;;;;;;;64.18;36.17;;;;;;;0.13;100.00;100960.56;10374965;28;20037;-69
2022/12/10 08:19:35;;;;;;;65.60;31.90;;;;;;;0.10;100.00;100966.13;10372433;28;20042;-69
2022/12/10 08:24:35;;;;;;;68.13;37.22;;;;;;;0.19;100.00;100977.81;10373984;28;20053;-69
2022/12/10 08:29:36;;;;;;;37.13;22.98;;;;;;;0.19;100.00;100981.34;10374085;28;20033;-72
2022/12/10 08:34:36;;;;;;;69.90;38.25;;;;;;;0.17;100.00;100987.75;10389716;28;20033;-69
2022/12/10 08:39:37;;;;;;;71.55;40.72;;;;;;;0.17;100.00;100975.28;10373816;28;20037;-69
2022/12/10 08:44:37;;;;;;;86.15;35.40;;;;;;;0.29;100.00;100984.09;10375443;28;20409;-70
2022/12/10 08:49:37;;;;;;;85.32;38.38;;;;;;;0.39;100.00;100995.66;10325549;28;20104;-69
2022/12/10 08:54:38;;;;;;;68.22;41.38;;;;;;;0.35;100.00;100990.69;10382883;28;20030;-71
2022/12/10 08:59:38;;;;;;;80.25;44.85;;;;;;;0.37;100.00;100997.59;10364105;28;20069;-70
2022/12/10 09:04:39;;;;;;;78.85;41.65;;;;;;;0.45;100.00;100989.81;10364351;28;20037;-71
2022/12/10 09:09:39;;;;;;;70.80;42.10;;;;;;;0.42;100.00;100997.22;10381406;28;20038;-71
2022/12/10 09:14:41;;;;;;;45.65;27.83;;;;;;;0.34;100.00;100989.00;10380658;28;20096;-71
2022/12/10 09:19:42;;;;;;;73.68;41.20;;;;;;;0.39;100.00;100997.47;10380849;28;20129;-70
2022/12/10 09:24:42;;;;;;;80.10;41.72;;;;;;;0.52;100.00;100998.13;10379709;28;20050;-70
2022/12/10 09:29:42;;;;;;;86.70;42.90;;;;;;;0.52;100.00;101008.78;10379789;28;20431;-69
2022/12/10 09:34:43;;;;;;;67.70;39.55;;;;;;;0.56;100.00;101020.84;10379614;28;20072;-70
2022/12/10 09:39:43;;;;;;;74.63;40.00;;;;;;;0.62;100.00;101031.00;10379428;28;20026;-71
2022/12/10 09:45:18;;;;;;;65.50;33.92;;;;;;;0.79;100.00;101020.72;10379436;28;20470;-70
2022/12/10 09:50:23;;;;;;;57.92;36.80;;;;;;;0.71;100.00;101033.88;10395386;28;20454;-71
2022/12/10 09:55:31;;;;;;;74.32;40.00;;;;;;;0.47;100.00;101026.97;10378886;28;20120;-73
2022/12/10 10:00:41;;;;;;;60.13;37.00;;;;;;;0.31;100.00;101023.88;10377997;28;20076;-71
2022/12/10 10:05:52;;;;;;;74.38;36.78;;;;;;;0.35;100.00;101030.63;10377516;28;20462;-71
2022/12/10 10:10:53;;;;;;;67.25;36.15;;;;;;;0.38;100.00;101027.72;10377738;28;20038;-72
2022/12/10 10:15:53;;;;;;;82.93;41.95;;;;;;;0.44;100.00;101029.88;10393925;28;20064;-72
2022/12/10 10:20:53;;;;;;;74.30;40.80;;;;;;;0.41;100.00;101041.63;10377564;28;20038;-72
2022/12/10 10:25:54;;;;;;;66.78;35.80;;;;;;;0.42;100.00;101043.34;10377408;28;20053;-73
2022/12/10 10:30:54;;;;;;;39.20;23.88;;;;;;;0.41;100.00;101041.63;10377017;28;20435;-71
2022/12/10 10:35:57;;;;;;;82.82;42.75;;;;;;;0.42;100.00;101031.84;10376268;28;20037;-71
2022/12/10 10:41:02;;;;;;;78.25;40.63;;;;;;;0.42;100.00;101046.00;10376579;28;20030;-71
2022/12/10 10:46:04;;;;;;;72.93;39.03;;;;;;;0.50;100.00;101044.50;10391952;28;20026;-71
2022/12/10 10:51:11;;;;;;;50.88;27.08;;;;;;;0.52;100.00;101047.91;10392057;28;20037;-71
2022/12/10 10:56:18;;;;;;;73.35;40.15;;;;;;;0.47;100.00;101037.63;10376645;28;20413;-71
2022/12/10 11:01:18;;;;;;;;;;;;;;;0.52;100.00;101035.41;10391739;28;20038;-69
2022/12/10 11:06:18;;;;;;;73.07;38.67;;;;;;;0.78;100.00;101037.69;10375256;28;19913;-70
2022/12/10 11:11:25;;;;;;;91.57;44.45;;;;;;;0.89;100.00;101049.13;10376039;28;20359;-70
2022/12/10 11:16:25;;;;;;;87.65;43.30;;;;;;;0.85;100.00;101045.03;10374932;28;20113;-70
2022/12/10 11:21:26;;;;;;;65.40;37.40;;;;;;;0.90;100.00;101039.31;10376417;28;20060;-70
2022/12/10 11:26:49;;;;;;;90.60;45.20;;;;;;;1.03;100.00;101042.63;10373336;28;20072;-70
2022/12/10 11:31:52;;;;;;;76.65;35.60;;;;;;;0.96;100.00;101037.91;10374743;28;20049;-69
2022/12/10 11:36:52;;;;;;;62.70;31.13;;;;;;;1.03;100.00;101034.63;10373901;28;20037;-69
2022/12/10 11:42:14;;;;;;;73.53;39.72;;;;;;;0.95;100.00;101031.75;10375600;28;20034;-70
2022/12/10 11:47:52;;;;;;;77.35;40.53;;;;;;;0.93;100.00;101028.38;10374211;28;20025;-70
2022/12/10 11:53:06;;;;;;;84.10;42.92;;;;;;;1.05;100.00;101018.47;10374514;28;20049;-70
2022/12/10 11:58:16;;;;;;;84.20;40.20;;;;;;;1.05;100.00;101013.97;10390969;28;20522;-69
2022/12/10 12:03:42;;;;;;;48.55;27.13;;;;;;;0.97;100.00;101027.13;10373937;28;20026;-70
2022/12/10 12:09:07;;;;;;;58.23;27.70;;;;;;;0.87;100.00;101035.09;10374670;28;20034;-70
2022/12/10 12:14:24;;;;;;;63.15;39.55;;;;;;;0.78;100.00;101032.38;10374344;28;20037;-70
2022/12/10 12:19:37;;;;;;;71.35;40.63;;;;;;;0.83;100.00;101014.13;10372595;28;20485;-71
2022/12/10 12:24:38;;;;;;;72.07;41.60;;;;;;;1.02;100.00;101011.59;10379892;28;20084;-71
2022/12/10 12:29:50;;;;;;;63.88;33.92;;;;;;;1.12;100.00;101008.97;10379663;28;20133;-71
2022/12/10 12:34:59;;;;;;;58.42;31.90;;;;;;;1.16;100.00;101023.72;10380333;28;20046;-69
2022/12/10 12:40:29;;;;;;;82.13;39.95;;;;;;;1.28;100.00;101016.50;10364241;28;20034;-70
2022/12/10 12:45:40;;;;;;;66.40;40.42;;;;;;;1.36;100.00;101014.81;10394856;28;20029;-69
2022/12/10 12:50:44;;;;;;;77.18;39.15;;;;;;;1.27;100.00;101022.78;10382145;28;20093;-71
2022/12/10 12:55:46;;;;;;;72.38;39.25;;;;;;;1.26;100.00;101023.78;10397185;28;20033;-71
2022/12/10 13:00:49;;;;;;;75.22;43.17;;;;;;;1.31;100.00;101027.72;10338455;28;20050;-70
2022/12/10 13:05:50;;;;;;;79.70;41.15;;;;;;;1.20;100.00;101033.16;10362429;28;20036;-69
2022/12/10 13:10:57;;;;;;;82.70;41.47;;;;;;;1.23;100.00;101034.72;10379320;28;20026;-70
2022/12/10 13:16:45;;;;;;;58.15;30.73;;;;;;;1.31;100.00;101037.56;10381063;28;20038;-70
2022/12/10 13:21:59;;;;;;;64.05;24.02;;;;;;;1.38;100.00;101038.72;10380949;28;20053;-71
2022/12/10 13:27:31;;;;;;;81.00;41.30;;;;;;;1.48;100.00;101031.56;10380556;28;20054;-70
2022/12/10 13:32:31;;;;;;;82.95;43.38;;;;;;;1.70;100.00;101033.19;10379045;28;20069;-70
2022/12/10 13:37:32;;;;;;;89.75;44.00;;;;;;;1.80;100.00;101028.72;10378329;28;20057;-70
2022/12/10 13:48:31;;;;;;;68.22;41.65;;;;;;;1.83;100.00;101028.44;10364828;28;20045;-69
2022/12/10 13:53:55;;;;;;;84.88;45.97;;;;;;;1.79;100.00;101026.19;10348607;28;20136;-70
2022/12/10 13:59:23;;;;;;;82.20;40.70;;;;;;;1.77;100.00;101025.47;10378931;28;20096;-70
2022/12/10 14:05:09;;;;;;;74.88;41.55;;;;;;;1.82;100.00;101025.91;10360296;28;20173;-70
2022/12/10 14:10:15;;;;;;;73.50;36.13;;;;;;;1.92;100.00;101024.09;10377108;28;20053;-71
2022/12/10 14:15:17;;;;;;;68.13;39.08;;;;;;;1.99;100.00;101035.91;10376862;28;20080;-69
2022/12/10 14:20:19;;;;;;;74.97;36.30;;;;;;;2.05;100.00;101037.19;10376937;28;20030;-70
2022/12/10 14:25:21;;;;;;;88.60;46.53;;;;;;;2.08;100.00;101045.75;10376372;28;20488;-70
2022/12/10 14:30:23;;;;;;;66.45;41.97;;;;;;;2.13;100.00;101044.50;10376211;28;20474;-70
2022/12/10 14:35:25;;;;;;;82.90;43.90;;;;;;;2.09;100.00;101042.09;10359814;28;20385;-69
2022/12/10 14:40:28;;;;;;;84.22;47.30;;;;;;;1.98;100.00;101041.38;10376383;28;20126;-69
2022/12/10 14:45:43;;;;;;;92.80;46.58;;;;;;;1.93;100.00;101040.97;10374111;28;20117;-70
2022/12/10 14:50:44;;;;;;;94.93;41.40;;;;;;;1.91;100.00;101054.44;10376054;28;20425;-69
2022/12/10 14:55:45;;;;;;;79.18;42.35;;;;;;;1.85;100.00;101053.19;10375774;28;20112;-69
2022/12/10 15:00:45;;;;;;;77.22;37.70;;;;;;;1.77;100.00;101055.69;10358450;28;20466;-73
2022/12/10 15:05:59;;;;;;;106.63;44.17;;;;;;;1.72;100.00;101057.06;10358500;28;20041;-72
2022/12/10 15:11:00;;;;;;;96.80;48.08;;;;;;;1.72;100.00;101070.41;10374922;28;20480;-73
2022/12/10 15:16:01;;;;;;;88.85;42.85;;;;;;;1.75;100.00;101067.47;10358310;28;20030;-72
2022/12/10 15:21:07;;;;;;;94.25;47.25;;;;;;;1.83;100.00;101062.31;10375425;28;20048;-70
2022/12/10 15:26:21;;;;;;;95.50;47.25;;;;;;;1.81;100.00;101066.94;10376484;28;20425;-70
2022/12/10 15:31:24;;;;;;;94.75;46.42;;;;;;;1.82;100.00;101069.47;10373397;28;20042;-71
2022/12/10 15:37:00;;;;;;;85.63;46.28;;;;;;;1.74;100.00;101065.78;10375692;28;20381;-71
2022/12/10 15:42:05;;;;;;;94.35;48.30;;;;;;;1.69;100.00;101070.69;10373334;28;20046;-70
2022/12/10 15:47:16;;;;;;;73.63;38.78;;;;;;;1.56;100.00;101069.13;10374276;28;20038;-71
2022/12/10 15:52:24;;;;;;;88.30;45.83;;;;;;;1.48;100.00;101073.44;10375529;28;20581;-71
2022/12/10 15:57:36;;;;;;;83.43;37.42;;;;;;;1.42;100.00;101072.13;10373978;28;20401;-71
2022/12/10 16:02:48;;;;;;;78.35;41.50;;;;;;;1.55;100.00;101078.09;10375091;28;20034;-70
2022/12/10 16:07:50;;;;;;;78.05;38.40;;;;;;;1.71;100.00;101077.59;10375800;28;20112;-71
2022/12/10 16:13:01;;;;;;;81.28;45.75;;;;;;;1.85;100.00;101071.88;10373998;28;20117;-70
2022/12/10 16:18:04;;;;;;;87.88;52.00;;;;;;;1.89;100.00;101075.13;10375865;28;20037;-70
2022/12/10 16:23:05;;;;;;;93.03;43.17;;;;;;;1.94;100.00;101080.03;10372833;28;20490;-70
2022/12/10 16:28:06;;;;;;;94.25;47.85;;;;;;;2.01;100.00;101073.16;10374083;28;20482;-70
2022/12/10 16:33:06;;;;;;;82.97;44.88;;;;;;;2.07;100.00;101077.94;10373839;28;20030;-70
2022/12/10 16:38:07;;;;;;;79.05;49.20;;;;;;;1.99;100.00;101067.13;10373754;28;20034;-70
2022/12/10 16:43:27;;;;;;;72.88;42.67;;;;;;;1.93;100.00;101067.66;10374232;28;20044;-70
2022/12/10 16:48:28;;;;;;;79.30;41.67;;;;;;;1.71;100.00;101066.06;10373268;28;20038;-71
2022/12/10 16:53:29;;;;;;;68.70;40.97;;;;;;;1.65;100.00;101066.59;10373139;28;20049;-70
2022/12/10 16:58:29;;;;;;;84.97;41.95;;;;;;;1.71;100.00;101066.06;10372266;28;20108;-71
2022/12/10 17:03:30;;;;;;;76.53;43.13;;;;;;;1.79;100.00;101080.44;10373792;28;20041;-70
2022/12/10 17:08:30;;;;;;;80.68;43.08;;;;;;;1.75;100.00;101080.81;10388649;28;20026;-70
2022/12/10 17:13:31;;;;;;;87.32;46.65;;;;;;;1.73;100.00;101085.47;10381126;28;20046;-70
2022/12/10 17:18:31;;;;;;;87.68;50.55;;;;;;;1.83;100.00;101081.00;10380900;28;20053;-71
2022/12/10 17:23:32;;;;;;;103.72;54.47;;;;;;;1.93;100.00;101084.53;10380112;28;20093;-70
2022/12/10 17:28:33;;;;;;;88.93;49.13;;;;;;;1.92;100.00;101076.66;10380986;28;20069;-70
2022/12/10 17:33:33;;;;;;;80.13;41.92;;;;;;;1.73;100.00;101072.13;10362864;28;20065;-71
2022/12/10 17:38:33;;;;;;;79.32;43.60;;;;;;;1.65;100.00;101067.44;10381166;28;20477;-70
2022/12/10 17:43:34;;;;;;;49.40;27.55;;;;;;;1.60;100.00;101075.03;10380066;28;20057;-71
2022/12/10 17:48:34;;;;;;;57.88;30.25;;;;;;;1.66;100.00;101071.81;10380719;28;20034;-70
2022/12/10 17:53:35;;;;;;;36.80;23.27;;;;;;;1.60;100.00;101073.19;10379654;28;20474;-70
2022/12/10 17:58:37;;;;;;;42.83;24.13;;;;;;;1.54;100.00;101087.09;10379961;28;20089;-70
2022/12/10 18:03:37;;;;;;;27.05;18.20;;;;;;;1.47;100.00;101085.94;10379113;28;20042;-71
2022/12/10 18:08:38;;;;;;;26.33;17.20;;;;;;;1.36;100.00;101086.00;10377224;28;20042;-70
2022/12/10 18:13:38;;;;;;;21.67;15.40;;;;;;;1.22;100.00;101091.72;10378364;28;20394;-71
2022/12/10 18:18:39;;;;;;;21.08;15.20;;;;;;;1.16;100.00;101093.06;10379144;28;20038;-72
2022/12/10 18:23:39;;;;;;;32.00;18.95;;;;;;;1.26;100.00;101093.97;10377063;28;20440;-71
2022/12/10 18:28:40;;;;;;;34.80;18.33;;;;;;;1.14;100.00;101093.19;10378952;28;20053;-71
2022/12/10 18:33:42;;;;;;;33.63;18.60;;;;;;;1.12;100.00;101087.16;10377793;28;20478;-71
2022/12/10 18:38:44;;;;;;;27.80;20.08;;;;;;;1.25;100.00;101083.44;10376674;28;20067;-71
2022/12/10 18:43:45;;;;;;;28.42;16.80;;;;;;;1.36;100.00;101094.84;10377418;28;20125;-71
2022/12/10 18:48:45;;;;;;;20.95;14.75;;;;;;;1.50;100.00;101080.34;10376015;28;20121;-71
2022/12/10 18:53:46;;;;;;;26.30;20.95;;;;;;;1.52;100.00;101078.34;10377268;28;20371;-70
2022/12/10 18:58:46;;;;;;;35.78;21.08;;;;;;;1.48;100.00;101071.59;10360633;28;20030;-71
2022/12/10 19:03:46;;;;;;;24.13;20.48;;;;;;;1.51;100.00;101082.00;10375666;28;20113;-70
2022/12/10 19:08:47;;;;;;;24.17;15.90;;;;;;;1.60;100.00;101078.53;10375861;28;20037;-70
2022/12/10 19:13:48;;;;;;;21.00;14.48;;;;;;;1.61;100.00;101090.06;10375658;28;20490;-71
2022/12/10 19:18:49;;;;;;;24.15;17.80;;;;;;;1.76;100.00;101095.88;10376744;28;20116;-71
2022/12/10 19:23:50;;;;;;;34.55;23.35;;;;;;;1.76;100.00;101096.72;10376012;28;20041;-70
2022/12/10 19:28:51;;;;;;;35.75;24.90;;;;;;;1.80;100.00;101089.28;10376398;28;20585;-69
2022/12/10 19:33:51;;;;;;;38.13;26.38;;;;;;;1.82;100.00;101090.84;10374184;28;20462;-70
2022/12/10 19:38:52;;;;;;;42.78;28.92;;;;;;;1.82;100.00;101096.19;10376127;28;20038;-70
2022/12/10 19:43:52;;;;;;;56.35;34.03;;;;;;;1.81;100.00;101090.97;10374126;28;20096;-71
2022/12/10 19:48:53;;;;;;;44.03;31.75;;;;;;;1.82;100.00;101090.84;10374809;28;20041;-70
2022/12/10 19:53:53;;;;;;;47.70;33.33;;;;;;;1.88;100.00;101089.44;10375137;28;20038;-71
2022/12/10 19:58:55;;;;;;;53.22;37.35;;;;;;;1.95;100.00;101085.25;10375132;28;20088;-71
2022/12/10 20:03:56;;;;;;;60.30;39.08;;;;;;;1.95;100.00;101089.75;10373549;28;20489;-70
2022/12/10 20:08:57;;;;;;;51.08;37.63;;;;;;;1.94;100.00;101096.06;10374753;28;20040;-71
2022/12/10 20:13:58;;;;;;;61.78;42.65;;;;;;;1.93;100.00;101095.22;10373555;28;20030;-72
2022/12/10 20:18:58;;;;;;;56.78;38.83;;;;;;;1.89;100.00;101092.97;10375225;28;20459;-71
2022/12/10 20:23:58;;;;;;;55.13;42.13;;;;;;;1.88;100.00;101100.09;10374136;28;20042;-71
2022/12/10 20:28:59;;;;;;;52.92;38.90;;;;;;;1.86;100.00;101091.41;10373656;28;20057;-71
2022/12/10 20:34:00;;;;;;;47.35;36.72;;;;;;;1.88;100.00;101101.94;10356838;28;20065;-71
2022/12/10 20:39:00;;;;;;;39.00;27.50;;;;;;;1.84;100.00;101091.53;10374289;28;20038;-72
2022/12/10 20:44:01;;;;;;;58.72;40.88;;;;;;;1.83;100.00;101099.69;10377218;28;20038;-71
2022/12/10 20:49:01;;;;;;;61.70;41.35;;;;;;;1.83;100.00;101097.84;10382752;28;20114;-70
2022/12/10 20:54:01;;;;;;;61.70;40.40;;;;;;;1.85;100.00;101093.25;10381992;28;20041;-71
2022/12/10 20:59:02;;;;;;;61.63;40.58;;;;;;;1.86;100.00;101089.56;10381292;28;20042;-70
2022/12/10 21:04:03;;;;;;;58.45;41.40;;;;;;;1.89;100.00;101095.63;10381672;28;20053;-70
2022/12/10 21:09:03;;;;;;;74.78;48.83;;;;;;;1.82;100.00;101090.84;10381358;28;20030;-71
2022/12/10 21:14:03;;;;;;;81.05;49.42;;;;;;;1.83;100.00;101094.34;10379189;28;20045;-71
2022/12/10 21:19:04;;;;;;;58.75;38.22;;;;;;;1.72;100.00;101087.28;10381409;28;20525;-71
2022/12/10 21:24:04;;;;;;;54.47;33.30;;;;;;;1.69;100.00;101095.56;10380512;28;20085;-70
2022/12/10 21:29:05;;;;;;;44.63;28.80;;;;;;;1.71;100.00;101098.09;10380683;28;20482;-72
2022/12/10 21:34:05;;;;;;;52.97;38.60;;;;;;;1.77;100.00;101106.41;10380704;28;20048;-70
2022/12/10 21:39:06;;;;;;;36.08;28.40;;;;;;;1.74;100.00;101108.50;10362863;28;20044;-71
2022/12/10 21:44:06;;;;;;;53.35;36.75;;;;;;;1.76;100.00;101119.91;10381162;28;20034;-72
2022/12/10 21:49:07;;;;;;;54.92;37.75;;;;;;;1.72;100.00;101116.63;10361974;28;20030;-70
2022/12/10 21:54:08;;;;;;;45.92;33.28;;;;;;;1.71;100.00;101114.94;10379152;28;20100;-70
2022/12/10 21:59:08;;;;;;;52.58;35.95;;;;;;;1.68;100.00;101106.38;10378340;28;20088;-70
2022/12/10 22:04:09;;;;;;;69.03;37.78;;;;;;;1.65;100.00;101110.16;10379261;28;20038;-70
2022/12/10 22:09:12;;;;;;;58.17;36.47;;;;;;;1.63;100.00;101099.63;10379967;28;20037;-70
2022/12/10 22:14:13;;;;;;;54.40;37.65;;;;;;;1.72;100.00;101099.78;10379809;28;20042;-70
2022/12/10 22:19:13;;;;;;;52.75;36.92;;;;;;;1.79;100.00;101111.63;10377836;28;20394;-70
2022/12/10 22:24:13;;;;;;;50.78;35.85;;;;;;;1.85;100.00;101095.91;10378201;28;20118;-70
2022/12/10 22:29:14;;;;;;;52.72;36.78;;;;;;;1.91;100.00;101099.00;10378628;28;20054;-70
2022/12/10 22:34:14;;;;;;;47.80;36.00;;;;;;;1.93;100.00;101097.03;10377511;28;20091;-70
2022/12/10 22:39:15;;;;;;;72.97;40.25;;;;;;;1.95;100.00;101095.09;10376663;28;20038;-70
2022/12/10 22:44:15;;;;;;;51.97;37.97;;;;;;;1.90;100.00;101097.31;10376856;28;20355;-71
2022/12/10 22:49:16;;;;;;;54.88;38.67;;;;;;;1.92;100.00;101101.53;10359961;28;20038;-71
2022/12/10 22:54:16;;;;;;;56.03;38.72;;;;;;;1.92;100.00;101090.03;10378361;28;20053;-71